createdAt,value
2023-04-09T00:00:12.802Z,41.45
2023-04-09T00:02:39.793Z,40.38
2023-04-09T00:05:07.505Z,43.92
2023-04-09T00:07:34.556Z,42.33
2023-04-09T00:10:01.476Z,41.13
2023-04-09T00:12:30.219Z,44.88
2023-04-09T00:14:57.731Z,43.58
2023-04-09T00:17:24.622Z,41.45
2023-04-09T00:19:52.146Z,45.00
2023-04-09T00:22:18.938Z,42.90
2023-04-09T00:24:45.675Z,42.63
2023-04-09T00:27:12.441Z,43.22
2023-04-09T00:29:39.156Z,44.10
2023-04-09T00:32:06.309Z,40.63
2023-04-09T00:34:33.134Z,39.42
2023-04-09T00:36:59.971Z,41.35
2023-04-09T00:39:26.743Z,44.08
2023-04-09T00:41:58.598Z,42.47
2023-04-09T00:44:25.788Z,42.03
2023-04-09T00:46:53.972Z,40.25
2023-04-09T00:49:21.538Z,41.67
2023-04-09T00:51:48.907Z,39.45
2023-04-09T00:54:16.292Z,43.13
2023-04-09T00:56:43.884Z,41.63
2023-04-09T00:59:10.725Z,40.85
2023-04-09T01:01:37.574Z,40.75
2023-04-09T01:04:04.930Z,42.75
2023-04-09T01:07:30.191Z,41.38
2023-04-09T01:10:15.059Z,44.08
2023-04-09T01:13:09.052Z,41.47
2023-04-09T01:15:42.255Z,42.28
2023-04-09T01:18:13.657Z,41.72
2023-04-09T01:20:43.746Z,41.72
2023-04-09T01:23:10.625Z,42.67
2023-04-09T01:25:58.589Z,38.83
2023-04-09T01:28:32.537Z,41.58
2023-04-09T01:31:09.297Z,38.47
2023-04-09T01:33:38.425Z,42.72
2023-04-09T01:36:07.232Z,38.40
2023-04-09T01:38:36.308Z,45.03
2023-04-09T01:41:05.391Z,46.95
2023-04-09T01:43:33.631Z,45.75
2023-04-09T01:46:03.430Z,45.28
2023-04-09T01:48:31.466Z,44.03
2023-04-09T01:50:59.105Z,43.40
2023-04-09T01:53:28.578Z,44.45
2023-04-09T01:55:58.333Z,42.20
2023-04-09T01:58:26.611Z,42.63
2023-04-09T02:01:00.232Z,47.53
2023-04-09T02:03:34.090Z,48.22
2023-04-09T02:06:17.365Z,47.83
2023-04-09T02:08:46.893Z,50.05
2023-04-09T02:11:15.073Z,48.08
2023-04-09T02:13:44.129Z,55.55
2023-04-09T02:16:13.238Z,57.17
2023-04-09T02:18:40.096Z,51.88
2023-04-09T02:21:07.369Z,50.10
2023-04-09T02:23:35.003Z,55.85
2023-04-09T02:26:01.885Z,56.95
2023-04-09T02:28:28.690Z,55.78
2023-04-09T02:30:55.488Z,48.92
2023-04-09T02:33:22.480Z,56.53
2023-04-09T02:35:49.264Z,56.55
2023-04-09T02:38:16.108Z,55.70
2023-04-09T02:40:43.171Z,55.05
2023-04-09T02:43:10.844Z,57.10
2023-04-09T02:45:37.653Z,54.25
2023-04-09T02:48:04.487Z,57.55
2023-04-09T02:50:31.252Z,57.63
2023-04-09T02:52:58.109Z,59.88
2023-04-09T02:55:25.089Z,58.08
2023-04-09T02:57:51.824Z,57.10
2023-04-09T03:00:18.520Z,54.78
2023-04-09T03:02:45.373Z,51.63
2023-04-09T03:05:12.167Z,50.55
2023-04-09T03:07:39.139Z,62.78
2023-04-09T03:10:06.459Z,58.58
2023-04-09T03:12:33.200Z,59.83
2023-04-09T03:14:59.898Z,57.03
2023-04-09T03:17:27.229Z,55.20
2023-04-09T03:19:54.332Z,60.72
2023-04-09T03:22:21.045Z,63.30
2023-04-09T03:24:48.013Z,60.42
2023-04-09T03:27:14.931Z,58.95
2023-04-09T03:29:41.639Z,57.35
2023-04-09T03:32:08.326Z,63.53
2023-04-09T03:34:35.487Z,57.45
2023-04-09T03:37:02.350Z,60.92
2023-04-09T03:39:30.900Z,56.38
2023-04-09T03:41:58.915Z,54.97
2023-04-09T03:44:26.143Z,56.53
2023-04-09T03:46:53.041Z,62.63
2023-04-09T03:49:19.850Z,54.33
2023-04-09T03:51:46.618Z,53.58
2023-04-09T03:54:13.557Z,58.05
2023-04-09T03:56:40.387Z,56.30
2023-04-09T03:59:07.109Z,52.03
2023-04-09T04:01:34.937Z,53.15
2023-04-09T04:04:02.016Z,56.28
2023-04-09T04:06:28.759Z,52.50
2023-04-09T04:08:55.604Z,53.00
2023-04-09T04:11:22.274Z,56.53
2023-04-09T04:13:49.017Z,54.58
2023-04-09T04:16:15.758Z,56.10
2023-04-09T04:18:42.482Z,53.63
2023-04-09T04:21:16.495Z,51.67
2023-04-09T04:23:43.287Z,55.70
2023-04-09T04:26:11.153Z,54.25
2023-04-09T04:28:38.863Z,56.13
2023-04-09T04:31:12.469Z,53.15
2023-04-09T04:33:40.668Z,51.20
2023-04-09T04:36:08.964Z,53.55
2023-04-09T04:38:36.501Z,52.20
2023-04-09T04:41:03.469Z,53.35
2023-04-09T04:43:30.240Z,50.47
2023-04-09T04:45:56.980Z,53.75
2023-04-09T04:48:23.874Z,53.08
2023-04-09T04:50:58.714Z,53.72
2023-04-09T04:53:25.694Z,56.42
2023-04-09T04:55:52.627Z,54.97
2023-04-09T04:58:19.796Z,52.95
2023-04-09T05:00:47.030Z,53.78
2023-04-09T05:03:14.508Z,55.35
2023-04-09T05:05:41.366Z,56.67
2023-04-09T05:08:08.115Z,51.95
2023-04-09T05:10:34.981Z,54.75
2023-04-09T05:13:01.646Z,55.15
2023-04-09T05:15:28.364Z,55.05
2023-04-09T05:17:55.220Z,56.22
2023-04-09T05:20:22.058Z,55.40
2023-04-09T05:22:48.788Z,53.72
2023-04-09T05:25:16.308Z,52.72
2023-04-09T05:27:43.291Z,55.17
2023-04-09T05:30:10.541Z,54.65
2023-04-09T05:32:37.490Z,53.92
2023-04-09T05:35:04.829Z,55.13
2023-04-09T05:37:31.635Z,52.15
2023-04-09T05:39:58.365Z,53.70
2023-04-09T05:42:25.088Z,52.90
2023-04-09T05:44:51.811Z,55.80
2023-04-09T05:47:18.488Z,56.28
2023-04-09T05:49:45.169Z,56.53
2023-04-09T05:52:11.888Z,56.03
2023-04-09T05:54:38.583Z,52.95
2023-04-09T05:57:05.225Z,58.50
2023-04-09T05:59:32.036Z,52.88
2023-04-09T06:01:58.751Z,54.55
2023-04-09T06:04:25.596Z,53.63
2023-04-09T06:06:52.402Z,54.42
2023-04-09T06:09:19.085Z,55.85
2023-04-09T06:11:45.810Z,56.55
2023-04-09T06:14:16.354Z,58.55
2023-04-09T06:16:43.102Z,57.80
2023-04-09T06:19:09.834Z,56.47
2023-04-09T06:21:36.552Z,53.17
2023-04-09T06:24:03.324Z,56.58
2023-04-09T06:26:30.376Z,56.38
2023-04-09T06:28:57.075Z,54.80
2023-04-09T06:31:23.831Z,53.17
2023-04-09T06:33:51.045Z,50.78
2023-04-09T06:36:18.085Z,53.75
2023-04-09T06:38:44.793Z,50.72
2023-04-09T06:41:12.741Z,52.28
2023-04-09T06:43:39.509Z,53.72
2023-04-09T06:46:06.319Z,51.33
2023-04-09T06:48:33.140Z,50.70
2023-04-09T06:50:59.925Z,54.75
2023-04-09T06:53:26.648Z,50.33
2023-04-09T06:55:55.451Z,54.20
2023-04-09T06:58:23.400Z,51.35
2023-04-09T07:00:50.288Z,55.03
2023-04-09T07:03:17.103Z,52.90
2023-04-09T07:05:44.019Z,54.42
2023-04-09T07:08:11.678Z,54.08
2023-04-09T07:10:38.526Z,50.97
2023-04-09T07:13:05.370Z,52.95
2023-04-09T07:15:32.162Z,56.30
2023-04-09T07:17:58.958Z,55.55
2023-04-09T07:20:25.725Z,53.83
2023-04-09T07:22:52.571Z,53.85
2023-04-09T07:25:19.421Z,57.15
2023-04-09T07:27:46.183Z,53.92
2023-04-09T07:30:13.028Z,58.08
2023-04-09T07:32:40.013Z,55.65
2023-04-09T07:35:09.648Z,62.15
2023-04-09T07:37:36.457Z,64.00
2023-04-09T07:40:04.046Z,64.88
2023-04-09T07:42:31.050Z,70.90
2023-04-09T07:44:57.719Z,65.88
2023-04-09T07:47:24.743Z,65.20
2023-04-09T07:49:51.783Z,68.82
2023-04-09T07:52:19.577Z,68.55
2023-04-09T07:54:46.307Z,79.95
2023-04-09T07:57:13.077Z,79.20
2023-04-09T07:59:39.885Z,83.15
2023-04-09T08:02:07.543Z,81.82
2023-04-09T08:04:34.391Z,77.93
2023-04-09T08:07:01.080Z,76.32
2023-04-09T08:09:27.797Z,84.30
2023-04-09T08:11:54.640Z,88.57
2023-04-09T08:14:21.401Z,84.10
2023-04-09T08:16:50.318Z,87.93
2023-04-09T08:19:18.180Z,85.15
2023-04-09T08:21:44.980Z,85.90
2023-04-09T08:24:12.205Z,85.95
2023-04-09T08:26:40.535Z,87.72
2023-04-09T08:29:08.354Z,88.93
2023-04-09T08:31:36.608Z,87.10
2023-04-09T08:34:03.640Z,85.90
2023-04-09T08:36:31.794Z,90.28
2023-04-09T08:39:00.525Z,91.05
2023-04-09T08:41:29.384Z,85.05
2023-04-09T08:43:58.773Z,83.72
2023-04-09T08:46:27.233Z,87.43
2023-04-09T08:48:54.476Z,83.50
2023-04-09T08:51:24.759Z,88.07
2023-04-09T08:54:04.406Z,86.90
2023-04-09T08:56:31.905Z,86.53
2023-04-09T08:58:58.873Z,85.20
2023-04-09T09:01:27.740Z,86.10
2023-04-09T09:03:55.715Z,82.55
2023-04-09T09:06:30.117Z,79.38
2023-04-09T09:09:06.605Z,80.38
2023-04-09T09:11:41.578Z,83.35
2023-04-09T09:14:19.220Z,78.05
2023-04-09T09:16:58.274Z,86.13
2023-04-09T09:19:25.048Z,76.90
2023-04-09T09:22:02.082Z,80.97
2023-04-09T09:24:29.605Z,77.45
2023-04-09T09:26:57.434Z,82.72
2023-04-09T09:29:24.746Z,81.97
2023-04-09T09:31:53.374Z,75.28
2023-04-09T09:34:21.487Z,77.32
2023-04-09T09:36:48.755Z,73.47
2023-04-09T09:39:17.624Z,81.47
2023-04-09T09:41:46.349Z,73.78
2023-04-09T09:44:30.602Z,77.32
2023-04-09T09:46:58.762Z,78.30
2023-04-09T09:49:25.516Z,81.57
2023-04-09T09:51:56.550Z,79.68
2023-04-09T09:54:25.638Z,83.00
2023-04-09T09:56:55.804Z,77.10
2023-04-09T09:59:32.024Z,79.72
2023-04-09T10:02:02.867Z,82.47
2023-04-09T10:04:32.907Z,82.05
2023-04-09T10:07:02.523Z,78.97
2023-04-09T10:09:29.342Z,80.05
2023-04-09T10:11:57.981Z,82.95
2023-04-09T10:14:26.048Z,88.63
2023-04-09T10:16:53.294Z,88.18
2023-04-09T10:19:20.646Z,85.13
2023-04-09T10:22:16.134Z,86.80
2023-04-09T10:24:43.488Z,88.45
2023-04-09T10:27:12.112Z,89.35
2023-04-09T10:29:45.671Z,82.35
2023-04-09T10:32:13.458Z,80.93
2023-04-09T10:34:42.374Z,86.95
2023-04-09T10:37:13.816Z,85.10
2023-04-09T10:39:44.330Z,82.47
2023-04-09T10:42:17.842Z,80.82
2023-04-09T10:44:44.632Z,86.72
2023-04-09T10:47:12.244Z,86.13
2023-04-09T10:49:40.945Z,80.43
2023-04-09T10:52:12.023Z,80.57
2023-04-09T10:54:44.036Z,79.30
2023-04-09T10:59:42.837Z,82.70
2023-04-09T11:02:18.160Z,79.07
2023-04-09T11:05:26.388Z,79.63
2023-04-09T11:08:12.412Z,75.43
2023-04-09T11:10:58.209Z,77.07
2023-04-09T11:13:25.682Z,75.72
2023-04-09T11:15:52.799Z,75.72
2023-04-09T11:18:27.436Z,76.90
2023-04-09T11:21:01.924Z,75.72
2023-04-09T11:23:29.095Z,74.85
2023-04-09T11:25:56.494Z,71.60
2023-04-09T11:28:24.430Z,70.95
2023-04-09T11:30:52.107Z,70.13
2023-04-09T11:33:20.204Z,68.50
2023-04-09T11:35:47.952Z,66.88
2023-04-09T11:38:14.820Z,66.97
2023-04-09T11:40:49.821Z,71.82
2023-04-09T11:43:17.650Z,70.43
2023-04-09T11:45:48.056Z,68.55
2023-04-09T11:48:18.010Z,72.25
2023-04-09T11:50:44.946Z,66.95
2023-04-09T11:53:22.841Z,63.90
2023-04-09T11:55:53.606Z,68.82
2023-04-09T11:58:25.539Z,62.83
2023-04-09T12:00:58.013Z,61.03
2023-04-09T12:03:34.991Z,57.03
2023-04-09T12:06:02.909Z,60.97
2023-04-09T12:08:31.203Z,57.90
2023-04-09T12:11:07.348Z,56.80
2023-04-09T12:13:34.243Z,57.08
2023-04-09T12:16:01.466Z,55.75
2023-04-09T12:18:28.282Z,55.85
2023-04-09T12:20:54.983Z,54.53
2023-04-09T12:23:21.715Z,57.72
2023-04-09T12:25:48.453Z,53.33
2023-04-09T12:28:17.949Z,54.70
2023-04-09T12:30:45.267Z,54.40
2023-04-09T12:33:12.171Z,53.35
2023-04-09T12:35:39.188Z,52.88
2023-04-09T12:38:06.106Z,50.38
2023-04-09T12:40:32.989Z,51.60
2023-04-09T12:42:59.813Z,54.67
2023-04-09T12:45:27.790Z,54.53
2023-04-09T12:47:54.503Z,51.95
2023-04-09T12:50:21.283Z,50.28
2023-04-09T12:52:48.109Z,48.40
2023-04-09T12:55:15.697Z,49.13
2023-04-09T12:57:47.051Z,48.17
2023-04-09T13:02:41.591Z,48.20
2023-04-09T13:05:08.639Z,48.53
2023-04-09T13:07:35.438Z,48.47
2023-04-09T13:10:02.202Z,46.67
2023-04-09T13:12:28.956Z,43.63
2023-04-09T13:14:56.589Z,46.20
2023-04-09T13:17:23.470Z,43.15
2023-04-09T13:19:51.379Z,48.00
2023-04-09T13:22:19.003Z,42.65
2023-04-09T13:24:45.888Z,41.78
2023-04-09T13:27:12.607Z,40.45
2023-04-09T13:29:39.368Z,42.00
2023-04-09T13:32:10.782Z,43.20
2023-04-09T13:37:05.402Z,41.35
2023-04-09T13:39:32.195Z,40.88
2023-04-09T13:41:59.677Z,41.75
2023-04-09T13:44:26.868Z,38.70
2023-04-09T13:46:53.583Z,39.17
2023-04-09T13:49:21.090Z,38.78
2023-04-09T13:51:50.173Z,41.88
2023-04-09T13:54:17.504Z,36.05
2023-04-09T13:56:46.040Z,35.85
2023-04-09T13:59:12.803Z,36.20
2023-04-09T14:01:39.667Z,35.63
2023-04-09T14:04:06.623Z,38.30
2023-04-09T14:06:33.403Z,37.63
2023-04-09T14:09:00.887Z,34.08
2023-04-09T14:11:27.614Z,32.72
2023-04-09T14:13:55.474Z,32.38
2023-04-09T14:16:22.512Z,32.58
2023-04-09T14:18:49.280Z,34.92
2023-04-09T14:21:16.598Z,35.80
2023-04-09T14:23:43.380Z,34.17
2023-04-09T14:26:10.513Z,33.88
2023-04-09T14:28:37.937Z,30.05
2023-04-09T14:31:05.408Z,31.25
2023-04-09T14:33:32.155Z,31.05
2023-04-09T14:35:59.125Z,31.10
2023-04-09T14:38:25.951Z,30.92
2023-04-09T14:40:53.011Z,27.50
2023-04-09T14:43:19.711Z,25.95
2023-04-09T14:45:46.499Z,24.15
2023-04-09T14:48:13.204Z,26.00
2023-04-09T14:50:39.931Z,23.48
2023-04-09T14:53:06.654Z,23.75
2023-04-09T14:55:33.436Z,22.55
2023-04-09T14:58:03.598Z,22.85
2023-04-09T15:00:31.462Z,22.63
2023-04-09T15:02:58.532Z,21.23
2023-04-09T15:05:25.510Z,23.67
2023-04-09T15:07:54.390Z,20.58
2023-04-09T15:10:21.326Z,24.63
2023-04-09T15:12:48.041Z,24.35
2023-04-09T15:15:14.788Z,23.70
2023-04-09T15:17:41.631Z,24.40
2023-04-09T15:20:08.655Z,22.63
2023-04-09T15:22:35.640Z,23.38
2023-04-09T15:25:02.385Z,24.13
2023-04-09T15:27:29.152Z,22.63
2023-04-09T15:29:55.866Z,21.33
2023-04-09T15:32:22.696Z,21.70
2023-04-09T15:34:50.246Z,21.42
2023-04-09T15:37:16.974Z,19.83
2023-04-09T15:39:43.755Z,21.42
2023-04-09T15:42:11.651Z,20.08
2023-04-09T15:44:40.525Z,20.80
2023-04-09T15:47:07.685Z,20.05
2023-04-09T15:49:36.756Z,20.98
2023-04-09T15:52:03.948Z,23.02
2023-04-09T15:54:31.027Z,18.38
2023-04-09T15:56:57.743Z,18.70
2023-04-09T15:59:24.514Z,18.52
2023-04-09T16:01:52.092Z,20.80
2023-04-09T16:04:18.868Z,18.45
2023-04-09T16:06:45.670Z,18.38
2023-04-09T16:09:12.359Z,20.30
2023-04-09T16:11:39.220Z,20.00
2023-04-09T16:14:06.038Z,19.48
2023-04-09T16:16:32.852Z,19.00
2023-04-09T16:19:01.035Z,21.42
2023-04-09T16:21:28.179Z,19.58
2023-04-09T16:23:54.909Z,18.77
2023-04-09T16:26:21.742Z,17.67
2023-04-09T16:28:48.952Z,17.90
2023-04-09T16:31:15.975Z,18.77
2023-04-09T16:33:42.736Z,18.52
2023-04-09T16:36:09.468Z,16.50
2023-04-09T16:38:36.501Z,18.60
2023-04-09T16:41:03.240Z,18.17
2023-04-09T16:43:30.274Z,18.60
2023-04-09T16:45:57.172Z,20.00
2023-04-09T16:48:24.120Z,17.83
2023-04-09T16:50:50.844Z,19.80
2023-04-09T16:53:17.643Z,18.35
2023-04-09T16:55:44.904Z,17.00
2023-04-09T16:58:11.678Z,17.63
2023-04-09T17:00:39.979Z,20.17
2023-04-09T17:03:06.943Z,18.63
2023-04-09T17:05:34.650Z,19.42
2023-04-09T17:08:01.366Z,18.52
2023-04-09T17:10:28.154Z,18.73
2023-04-09T17:12:55.116Z,20.02
2023-04-09T17:15:22.764Z,20.20
2023-04-09T17:17:52.347Z,18.38
2023-04-09T17:20:20.880Z,20.17
2023-04-09T17:22:47.662Z,18.27
2023-04-09T17:25:14.405Z,17.17
2023-04-09T17:27:43.646Z,18.77
2023-04-09T17:30:11.080Z,18.35
2023-04-09T17:32:39.430Z,19.75
2023-04-09T17:35:07.530Z,19.80
2023-04-09T17:37:34.781Z,19.38
2023-04-09T17:40:05.355Z,20.88
2023-04-09T17:42:32.099Z,20.20
2023-04-09T17:44:59.026Z,21.05
2023-04-09T17:47:25.972Z,19.10
2023-04-09T17:49:52.803Z,19.08
2023-04-09T17:52:20.478Z,19.25
2023-04-09T17:54:47.279Z,20.08
2023-04-09T17:57:14.001Z,19.02
2023-04-09T17:59:41.024Z,20.00
2023-04-09T18:02:08.044Z,21.63
2023-04-09T18:04:35.418Z,19.88
2023-04-09T18:07:02.967Z,18.60
2023-04-09T18:09:29.670Z,19.38
2023-04-09T18:11:57.780Z,19.33
2023-04-09T18:14:24.824Z,19.30
2023-04-09T18:16:51.796Z,18.17
2023-04-09T18:19:18.582Z,18.85
2023-04-09T18:21:45.302Z,19.67
2023-04-09T18:24:11.966Z,18.85
2023-04-09T18:26:38.741Z,22.85
2023-04-09T18:29:05.981Z,20.98
2023-04-09T18:31:32.970Z,19.23
2023-04-09T18:33:59.661Z,18.60
2023-04-09T18:36:28.199Z,20.08
2023-04-09T18:38:55.797Z,20.83
2023-04-09T18:41:26.808Z,19.83
2023-04-09T18:43:54.188Z,20.25
2023-04-09T18:46:20.971Z,18.95
2023-04-09T18:48:47.752Z,20.92
2023-04-09T18:51:14.853Z,19.75
2023-04-09T18:53:42.102Z,18.85
2023-04-09T18:56:09.342Z,20.23
2023-04-09T18:58:36.359Z,19.15
2023-04-09T19:01:11.197Z,18.65
2023-04-09T19:03:38.856Z,19.75
2023-04-09T19:06:17.932Z,19.10
2023-04-09T19:08:46.127Z,20.23
2023-04-09T19:11:13.880Z,20.67
2023-04-09T19:13:40.810Z,21.40
2023-04-09T19:16:09.372Z,18.45
2023-04-09T19:18:37.313Z,18.98
2023-04-09T19:21:05.265Z,18.20
2023-04-09T19:23:34.202Z,21.80
2023-04-09T19:26:01.790Z,19.83
2023-04-09T19:28:28.867Z,21.45
2023-04-09T19:30:55.698Z,21.63
2023-04-09T19:33:26.937Z,20.35
2023-04-09T19:35:55.886Z,22.45
2023-04-09T19:38:22.880Z,19.63
2023-04-09T19:40:49.669Z,21.00
2023-04-09T19:43:16.485Z,18.70
2023-04-09T19:45:43.538Z,18.92
2023-04-09T19:48:10.516Z,20.23
2023-04-09T19:50:38.783Z,21.33
2023-04-09T19:53:05.986Z,19.80
2023-04-09T19:55:33.831Z,22.17
2023-04-09T19:58:00.888Z,19.55
2023-04-09T20:00:28.249Z,19.05
2023-04-09T20:02:55.736Z,21.17
2023-04-09T20:05:22.883Z,20.55
2023-04-09T20:07:50.737Z,19.63
2023-04-09T20:10:17.529Z,21.05
2023-04-09T20:12:51.142Z,19.48
2023-04-09T20:15:20.194Z,20.58
2023-04-09T20:17:51.080Z,19.05
2023-04-09T20:20:19.779Z,19.15
2023-04-09T20:22:55.651Z,20.50
2023-04-09T20:25:23.544Z,20.20
2023-04-09T20:27:52.818Z,18.02
2023-04-09T20:30:19.743Z,20.10
2023-04-09T20:32:47.407Z,20.30
2023-04-09T20:35:14.543Z,19.42
2023-04-09T20:37:41.230Z,20.27
2023-04-09T20:40:08.445Z,20.20
2023-04-09T20:42:35.490Z,20.27
2023-04-09T20:45:02.300Z,19.67
2023-04-09T20:47:29.158Z,18.83
2023-04-09T20:49:59.734Z,20.35
2023-04-09T20:52:28.501Z,19.45
2023-04-09T20:54:56.871Z,20.42
2023-04-09T20:57:23.838Z,19.05
2023-04-09T20:59:50.811Z,20.17
2023-04-09T21:02:17.824Z,20.38
2023-04-09T21:04:44.744Z,19.45
2023-04-09T21:07:11.607Z,21.65
2023-04-09T21:09:38.484Z,21.05
2023-04-09T21:12:06.104Z,19.15
2023-04-09T21:14:32.905Z,17.38
2023-04-09T21:16:59.753Z,18.02
2023-04-09T21:19:26.594Z,20.67
2023-04-09T21:21:53.299Z,21.33
2023-04-09T21:24:20.106Z,19.75
2023-04-09T21:26:51.564Z,19.00
2023-04-09T21:29:20.357Z,22.67
2023-04-09T21:31:48.511Z,22.10
2023-04-09T21:34:15.922Z,20.98
2023-04-09T21:36:44.682Z,19.60
2023-04-09T21:39:11.621Z,20.23
2023-04-09T21:41:39.120Z,19.90
2023-04-09T21:44:08.502Z,18.85
2023-04-09T21:46:40.510Z,19.63
2023-04-09T21:49:08.020Z,20.63
2023-04-09T21:51:34.769Z,20.27
2023-04-09T21:54:08.442Z,18.45
2023-04-09T21:56:36.035Z,18.83
2023-04-09T21:59:03.081Z,19.15
2023-04-09T22:01:31.355Z,18.45
2023-04-09T22:03:59.602Z,18.33
2023-04-09T22:06:27.302Z,19.00
2023-04-09T22:08:56.732Z,20.30
2023-04-09T22:11:26.804Z,19.60
2023-04-09T22:13:53.786Z,19.10
2023-04-09T22:16:20.601Z,18.40
2023-04-09T22:18:47.443Z,20.88
2023-04-09T22:21:16.274Z,18.13
2023-04-09T22:23:43.489Z,17.88
2023-04-09T22:26:10.200Z,18.88
2023-04-09T22:28:36.914Z,19.05
2023-04-09T22:31:03.905Z,19.45
2023-04-09T22:33:30.723Z,20.48
2023-04-09T22:35:58.831Z,19.55
2023-04-09T22:38:26.056Z,17.25
2023-04-09T22:40:52.775Z,20.58
2023-04-09T22:43:19.723Z,18.88
2023-04-09T22:45:51.957Z,17.55
2023-04-09T22:48:19.296Z,18.58
2023-04-09T22:50:46.471Z,19.95
2023-04-09T22:53:18.789Z,16.33
2023-04-09T22:55:54.342Z,18.33
2023-04-09T22:58:21.144Z,19.08
2023-04-09T23:00:48.178Z,19.05
2023-04-09T23:03:15.266Z,17.05
2023-04-09T23:05:42.276Z,17.90
2023-04-09T23:08:09.727Z,17.10
2023-04-09T23:10:36.574Z,20.65
2023-04-09T23:13:03.610Z,18.15
2023-04-09T23:15:30.383Z,18.52
2023-04-09T23:17:57.226Z,17.70
2023-04-09T23:20:24.017Z,19.70
2023-04-09T23:22:51.090Z,18.85
2023-04-09T23:25:18.580Z,19.67
2023-04-09T23:27:46.529Z,17.90
2023-04-09T23:30:17.006Z,19.75
2023-04-09T23:32:48.089Z,18.17
2023-04-09T23:35:15.406Z,17.10
2023-04-09T23:37:42.594Z,17.02
2023-04-09T23:40:10.250Z,17.10
2023-04-09T23:42:36.990Z,18.13
2023-04-09T23:45:05.728Z,17.55
2023-04-09T23:47:34.640Z,19.67
2023-04-09T23:50:04.847Z,17.67
2023-04-09T23:52:34.329Z,17.13
2023-04-09T23:55:01.438Z,16.40
2023-04-09T23:57:28.793Z,18.38
2023-04-09T23:59:56.037Z,16.00
